createdAt,value
2019-03-18T00:00:42.964Z,101320.00
2019-03-18T00:02:18.417Z,101319.00
2019-03-18T00:03:54.138Z,101325.00
2019-03-18T00:05:29.928Z,101324.00
2019-03-18T00:07:05.373Z,101329.00
2019-03-18T00:08:40.751Z,101322.00
2019-03-18T00:10:16.143Z,101320.00
2019-03-18T00:11:51.524Z,101320.00
2019-03-18T00:13:26.909Z,101319.00
2019-03-18T00:15:02.405Z,101319.00
2019-03-18T00:16:38.819Z,101312.00
2019-03-18T00:18:15.170Z,101315.00
2019-03-18T00:19:50.862Z,101309.00
2019-03-18T00:21:26.235Z,101313.00
2019-03-18T00:23:01.615Z,101324.00
2019-03-18T00:24:37.277Z,101326.00
2019-03-18T00:26:12.649Z,101324.00
2019-03-18T00:27:48.018Z,101346.00
2019-03-18T00:29:23.407Z,101338.00
2019-03-18T00:30:58.793Z,101338.00
2019-03-18T00:32:34.164Z,101342.00
2019-03-18T00:34:09.555Z,101360.00
2019-03-18T00:35:44.943Z,101355.00
2019-03-18T00:37:20.435Z,101359.00
2019-03-18T00:38:55.817Z,101356.00
2019-03-18T00:40:32.170Z,101355.00
2019-03-18T00:42:07.548Z,101351.00
2019-03-18T00:43:42.920Z,101345.00
2019-03-18T00:45:18.432Z,101349.00
2019-03-18T00:46:53.819Z,101350.00
2019-03-18T00:48:29.294Z,101351.00
2019-03-18T00:50:08.588Z,101367.00
2019-03-18T00:51:44.311Z,101361.00
2019-03-18T00:53:20.835Z,101360.00
2019-03-18T00:54:56.464Z,101351.00
2019-03-18T00:56:31.835Z,101364.00
2019-03-18T00:58:07.215Z,101350.00
2019-03-18T00:59:42.591Z,101348.00
2019-03-18T01:01:17.978Z,101343.00
2019-03-18T01:02:53.703Z,101350.00
2019-03-18T01:04:29.077Z,101343.00
2019-03-18T01:06:04.506Z,101346.00
2019-03-18T01:07:39.877Z,101348.00
2019-03-18T01:09:15.262Z,101333.00
2019-03-18T01:10:50.721Z,101346.00
2019-03-18T01:12:26.097Z,101341.00
2019-03-18T01:14:01.478Z,101343.00
2019-03-18T01:15:36.870Z,101336.00
2019-03-18T01:17:12.246Z,101342.00
2019-03-18T01:18:48.556Z,101331.00
2019-03-18T01:20:23.940Z,101324.00
2019-03-18T01:21:59.315Z,101326.00
2019-03-18T01:23:34.699Z,101345.00
2019-03-18T01:25:11.192Z,101342.00
2019-03-18T01:26:46.569Z,101341.00
2019-03-18T01:28:21.951Z,101350.00
2019-03-18T01:29:57.401Z,101337.00
2019-03-18T01:31:32.790Z,101342.00
2019-03-18T01:33:08.168Z,101351.00
2019-03-18T01:34:43.544Z,101345.00
2019-03-18T01:36:19.295Z,101341.00
2019-03-18T01:37:54.960Z,101350.00
2019-03-18T01:39:30.341Z,101335.00
2019-03-18T01:41:06.040Z,101346.00
2019-03-18T01:42:41.411Z,101340.00
2019-03-18T01:44:16.784Z,101340.00
2019-03-18T01:45:52.173Z,101338.00
2019-03-18T01:47:27.555Z,101339.00
2019-03-18T01:49:02.936Z,101349.00
2019-03-18T01:50:38.658Z,101349.00
2019-03-18T01:52:14.035Z,101340.00
2019-03-18T01:53:50.117Z,101344.00
2019-03-18T01:55:25.793Z,101343.00
2019-03-18T01:57:01.166Z,101343.00
2019-03-18T01:58:36.555Z,101350.00
2019-03-18T02:00:14.714Z,101355.00
2019-03-18T02:01:50.695Z,101349.00
2019-03-18T02:03:26.065Z,101367.00
2019-03-18T02:05:01.468Z,101361.00
2019-03-18T02:06:36.857Z,101357.00
2019-03-18T02:08:12.231Z,101344.00
2019-03-18T02:09:47.608Z,101350.00
2019-03-18T02:11:23.085Z,101342.00
2019-03-18T02:12:58.444Z,101345.00
2019-03-18T02:14:33.825Z,101348.00
2019-03-18T02:16:09.217Z,101356.00
2019-03-18T02:17:44.981Z,101380.00
2019-03-18T02:19:21.489Z,101372.00
2019-03-18T02:20:56.880Z,101374.00
2019-03-18T02:22:32.255Z,101384.00
2019-03-18T02:24:07.631Z,101378.00
2019-03-18T02:25:43.022Z,101372.00
2019-03-18T02:27:18.406Z,101387.00
2019-03-18T02:28:53.776Z,101387.00
2019-03-18T02:30:29.165Z,101391.00
2019-03-18T02:32:04.546Z,101394.00
2019-03-18T02:33:40.317Z,101387.00
2019-03-18T02:35:15.655Z,101381.00
2019-03-18T02:36:51.046Z,101387.00
2019-03-18T02:38:26.434Z,101389.00
2019-03-18T02:40:01.801Z,101395.00
2019-03-18T02:41:37.189Z,101400.00
2019-03-18T02:43:12.575Z,101396.00
2019-03-18T02:44:47.950Z,101388.00
2019-03-18T02:46:23.348Z,101407.00
2019-03-18T02:47:58.711Z,101418.00
2019-03-18T02:49:34.109Z,101412.00
2019-03-18T02:51:09.531Z,101416.00
2019-03-18T02:52:44.916Z,101418.00
2019-03-18T02:54:20.292Z,101411.00
2019-03-18T02:55:55.943Z,101426.00
2019-03-18T02:57:31.386Z,101426.00
2019-03-18T02:59:07.053Z,101432.00
2019-03-18T03:00:42.437Z,101439.00
2019-03-18T03:02:17.811Z,101440.00
2019-03-18T03:03:53.843Z,101430.00
2019-03-18T03:05:29.285Z,101434.00
2019-03-18T03:07:04.966Z,101434.00
2019-03-18T03:08:40.400Z,101429.00
2019-03-18T03:10:16.680Z,101418.00
2019-03-18T03:11:52.057Z,101419.00
2019-03-18T03:13:27.413Z,101437.00
2019-03-18T03:15:02.851Z,101437.00
2019-03-18T03:16:38.604Z,101422.00
2019-03-18T03:18:14.252Z,101421.00
2019-03-18T03:19:49.625Z,101427.00
2019-03-18T03:21:25.000Z,101439.00
2019-03-18T03:23:00.363Z,101427.00
2019-03-18T03:24:35.727Z,101438.00
2019-03-18T03:26:11.102Z,101442.00
2019-03-18T03:27:46.459Z,101443.00
2019-03-18T03:29:21.827Z,101465.00
2019-03-18T03:30:57.538Z,101466.00
2019-03-18T03:32:33.179Z,101466.00
2019-03-18T03:34:13.317Z,101468.00
2019-03-18T03:35:45.609Z,101473.00
2019-03-18T03:37:21.232Z,101474.00
2019-03-18T03:38:56.601Z,101485.00
2019-03-18T03:40:32.038Z,101480.00
2019-03-18T03:42:07.486Z,101486.00
2019-03-18T03:43:42.836Z,101484.00
2019-03-18T03:45:18.220Z,101488.00
2019-03-18T03:46:53.582Z,101493.00
2019-03-18T03:48:29.131Z,101493.00
2019-03-18T03:50:06.035Z,101483.00
2019-03-18T03:51:41.413Z,101493.00
2019-03-18T03:53:16.783Z,101488.00
2019-03-18T03:54:52.160Z,101475.00
2019-03-18T03:56:27.607Z,101482.00
2019-03-18T03:58:03.246Z,101489.00
2019-03-18T03:59:39.081Z,101494.00
2019-03-18T04:01:14.523Z,101504.00
2019-03-18T04:02:49.889Z,101494.00
2019-03-18T04:04:25.267Z,101493.00
2019-03-18T04:06:00.956Z,101499.00
2019-03-18T04:07:36.330Z,101506.00
2019-03-18T04:09:11.681Z,101494.00
2019-03-18T04:10:47.063Z,101503.00
2019-03-18T04:12:22.444Z,101505.00
2019-03-18T04:13:57.804Z,101500.00
2019-03-18T04:15:33.172Z,101510.00
2019-03-18T04:17:08.557Z,101503.00
2019-03-18T04:18:43.913Z,101501.00
2019-03-18T04:20:19.287Z,101510.00
2019-03-18T04:21:54.683Z,101514.00
2019-03-18T04:23:30.042Z,101521.00
2019-03-18T04:25:07.728Z,101516.00
2019-03-18T04:26:43.094Z,101528.00
2019-03-18T04:28:18.802Z,101527.00
2019-03-18T04:29:54.179Z,101516.00
2019-03-18T04:31:29.562Z,101518.00
2019-03-18T04:33:04.923Z,101516.00
2019-03-18T04:34:40.552Z,101524.00
2019-03-18T04:36:15.949Z,101524.00
2019-03-18T04:37:51.285Z,101529.00
2019-03-18T04:39:26.963Z,101523.00
2019-03-18T04:41:03.175Z,101547.00
2019-03-18T04:42:38.553Z,101536.00
2019-03-18T04:44:13.936Z,101537.00
2019-03-18T04:45:49.306Z,101534.00
2019-03-18T04:47:24.671Z,101529.00
2019-03-18T04:49:00.311Z,101533.00
2019-03-18T04:50:35.669Z,101537.00
2019-03-18T04:52:11.375Z,101542.00
2019-03-18T04:53:46.756Z,101547.00
2019-03-18T04:55:22.124Z,101550.00
2019-03-18T04:56:57.794Z,101547.00
2019-03-18T04:58:33.231Z,101557.00
2019-03-18T05:00:12.277Z,101550.00
2019-03-18T05:01:47.655Z,101549.00
2019-03-18T05:03:23.350Z,101555.00
2019-03-18T05:04:58.716Z,101547.00
2019-03-18T05:06:34.091Z,101571.00
2019-03-18T05:08:09.462Z,101571.00
2019-03-18T05:09:44.821Z,101582.00
2019-03-18T05:11:20.184Z,101585.00
2019-03-18T05:12:55.556Z,101588.00
2019-03-18T05:14:31.184Z,101584.00
2019-03-18T05:16:06.554Z,101590.00
2019-03-18T05:17:42.262Z,101579.00
2019-03-18T05:19:17.655Z,101580.00
2019-03-18T05:20:53.021Z,101570.00
2019-03-18T05:22:28.408Z,101577.00
2019-03-18T05:24:03.787Z,101576.00
2019-03-18T05:25:39.156Z,101569.00
2019-03-18T05:27:14.781Z,101563.00
2019-03-18T05:28:50.145Z,101569.00
2019-03-18T05:30:25.524Z,101566.00
2019-03-18T05:32:00.892Z,101561.00
2019-03-18T05:33:36.256Z,101565.00
2019-03-18T05:35:12.091Z,101558.00
2019-03-18T05:36:47.461Z,101557.00
2019-03-18T05:38:22.836Z,101571.00
2019-03-18T05:39:58.271Z,101565.00
2019-03-18T05:41:33.637Z,101568.00
2019-03-18T05:43:09.101Z,101554.00
2019-03-18T05:44:45.920Z,101553.00
2019-03-18T05:46:21.296Z,101551.00
2019-03-18T05:47:56.673Z,101551.00
2019-03-18T05:49:32.338Z,101556.00
2019-03-18T05:51:07.712Z,101540.00
2019-03-18T05:52:43.087Z,101538.00
2019-03-18T05:54:18.745Z,101545.00
2019-03-18T05:55:54.115Z,101555.00
2019-03-18T05:57:29.493Z,101566.00
2019-03-18T05:59:04.861Z,101565.00
2019-03-18T06:00:40.227Z,101574.00
2019-03-18T06:02:15.608Z,101578.00
2019-03-18T06:03:51.222Z,101572.00
2019-03-18T06:05:26.589Z,101568.00
2019-03-18T06:07:01.966Z,101562.00
2019-03-18T06:08:37.338Z,101553.00
2019-03-18T06:10:14.021Z,101569.00
2019-03-18T06:11:49.380Z,101556.00
2019-03-18T06:13:25.016Z,101570.00
2019-03-18T06:15:00.500Z,101577.00
2019-03-18T06:16:35.832Z,101575.00
2019-03-18T06:18:11.221Z,101572.00
2019-03-18T06:19:46.590Z,101577.00
2019-03-18T06:21:21.964Z,101571.00
2019-03-18T06:22:57.333Z,101588.00
2019-03-18T06:24:32.697Z,101581.00
2019-03-18T06:26:08.066Z,101586.00
2019-03-18T06:27:44.515Z,101574.00
2019-03-18T06:29:20.206Z,101591.00
2019-03-18T06:30:55.647Z,101579.00
2019-03-18T06:32:31.020Z,101588.00
2019-03-18T06:34:07.355Z,101557.00
2019-03-18T06:35:42.721Z,101564.00
2019-03-18T06:37:18.873Z,101588.00
2019-03-18T06:38:54.234Z,101567.00
2019-03-18T06:40:29.601Z,101583.00
2019-03-18T06:42:04.982Z,101598.00
2019-03-18T06:43:40.677Z,101590.00
2019-03-18T06:45:16.035Z,101579.00
2019-03-18T06:46:51.402Z,101584.00
2019-03-18T06:48:27.078Z,101577.00
2019-03-18T06:50:02.455Z,101590.00
2019-03-18T06:51:37.823Z,101586.00
2019-03-18T06:53:13.191Z,101600.00
2019-03-18T06:54:49.970Z,101599.00
2019-03-18T06:56:25.353Z,101604.00
2019-03-18T06:58:00.743Z,101584.00
2019-03-18T06:59:36.118Z,101591.00
2019-03-18T07:01:11.816Z,101590.00
2019-03-18T07:02:47.564Z,101597.00
2019-03-18T07:04:23.212Z,101598.00
2019-03-18T07:05:58.608Z,101602.00
2019-03-18T07:07:33.973Z,101601.00
2019-03-18T07:09:09.358Z,101595.00
2019-03-18T07:10:44.744Z,101598.00
2019-03-18T07:12:20.687Z,101597.00
2019-03-18T07:13:56.071Z,101596.00
2019-03-18T07:15:31.434Z,101585.00
2019-03-18T07:17:06.808Z,101589.00
2019-03-18T07:18:42.233Z,101604.00
2019-03-18T07:20:17.650Z,101600.00
2019-03-18T07:21:53.070Z,101617.00
2019-03-18T07:23:28.475Z,101604.00
2019-03-18T07:25:04.524Z,101599.00
2019-03-18T07:26:39.914Z,101615.00
2019-03-18T07:28:18.044Z,101602.00
2019-03-18T07:29:52.367Z,101601.00
2019-03-18T07:31:27.746Z,101597.00
2019-03-18T07:33:03.242Z,101582.00
2019-03-18T07:34:38.980Z,101588.00
2019-03-18T07:36:14.625Z,101606.00
2019-03-18T07:37:50.347Z,101601.00
2019-03-18T07:39:25.807Z,101619.00
2019-03-18T07:41:01.532Z,101618.00
2019-03-18T07:42:36.918Z,101615.00
2019-03-18T07:44:12.332Z,101615.00
2019-03-18T07:45:47.700Z,101619.00
2019-03-18T07:47:23.094Z,101630.00
2019-03-18T07:48:58.490Z,101624.00
2019-03-18T07:50:33.864Z,101614.00
2019-03-18T07:52:09.241Z,101615.00
2019-03-18T07:53:44.634Z,101626.00
2019-03-18T07:55:20.367Z,101617.00
2019-03-18T07:56:55.751Z,101633.00
2019-03-18T07:58:31.444Z,101626.00
2019-03-18T08:00:14.899Z,101632.00
2019-03-18T08:01:51.253Z,101627.00
2019-03-18T08:03:26.976Z,101640.00
2019-03-18T08:05:02.719Z,101640.00
2019-03-18T08:06:38.092Z,101648.00
2019-03-18T08:08:13.478Z,101642.00
2019-03-18T08:09:48.869Z,101646.00
2019-03-18T08:11:24.253Z,101641.00
2019-03-18T08:12:59.917Z,101633.00
2019-03-18T08:14:35.346Z,101658.00
2019-03-18T08:16:10.734Z,101654.00
2019-03-18T08:17:46.108Z,101653.00
2019-03-18T08:19:21.504Z,101656.00
2019-03-18T08:20:56.885Z,101662.00
2019-03-18T08:22:32.273Z,101658.00
2019-03-18T08:24:07.667Z,101669.00
2019-03-18T08:25:43.040Z,101654.00
2019-03-18T08:27:18.424Z,101673.00
2019-03-18T08:28:54.446Z,101673.00
2019-03-18T08:30:29.822Z,101664.00
2019-03-18T08:32:05.207Z,101666.00
2019-03-18T08:33:40.590Z,101679.00
2019-03-18T08:35:15.976Z,101680.00
2019-03-18T08:36:51.360Z,101682.00
2019-03-18T08:38:26.832Z,101691.00
2019-03-18T08:40:02.246Z,101685.00
2019-03-18T08:41:37.606Z,101677.00
2019-03-18T08:43:13.301Z,101690.00
2019-03-18T08:44:48.688Z,101675.00
2019-03-18T08:46:24.064Z,101699.00
2019-03-18T08:47:59.441Z,101700.00
2019-03-18T08:49:34.833Z,101694.00
2019-03-18T08:51:10.203Z,101694.00
2019-03-18T08:52:45.927Z,101676.00
2019-03-18T08:54:21.620Z,101693.00
2019-03-18T08:55:57.413Z,101699.00
2019-03-18T08:57:32.761Z,101701.00
2019-03-18T08:59:08.153Z,101703.00
2019-03-18T09:00:43.531Z,101717.00
2019-03-18T09:02:19.279Z,101726.00
2019-03-18T09:03:54.664Z,101714.00
2019-03-18T09:05:30.047Z,101723.00
2019-03-18T09:07:05.422Z,101720.00
2019-03-18T09:08:40.807Z,101739.00
2019-03-18T09:10:17.493Z,101733.00
2019-03-18T09:11:52.950Z,101727.00
2019-03-18T09:13:28.320Z,101747.00
2019-03-18T09:15:04.946Z,101731.00
2019-03-18T09:16:40.320Z,101743.00
2019-03-18T09:18:15.989Z,101755.00
2019-03-18T09:19:51.819Z,101747.00
2019-03-18T09:21:27.195Z,101755.00
2019-03-18T09:23:02.574Z,101778.00
2019-03-18T09:24:37.954Z,101771.00
2019-03-18T09:26:13.333Z,101772.00
2019-03-18T09:27:48.712Z,101782.00
2019-03-18T09:29:24.100Z,101779.00
2019-03-18T09:30:59.547Z,101774.00
2019-03-18T09:32:34.923Z,101790.00
2019-03-18T09:34:10.314Z,101788.00
2019-03-18T09:35:45.694Z,101792.00
2019-03-18T09:37:21.069Z,101784.00
2019-03-18T09:38:56.448Z,101790.00
2019-03-18T09:40:32.896Z,101791.00
2019-03-18T09:42:08.277Z,101782.00
2019-03-18T09:43:43.652Z,101788.00
2019-03-18T09:45:19.675Z,101780.00
2019-03-18T09:46:55.052Z,101793.00
2019-03-18T09:48:30.432Z,101785.00
2019-03-18T09:50:08.447Z,101782.00
2019-03-18T09:51:43.818Z,101791.00
2019-03-18T09:53:19.197Z,101787.00
2019-03-18T09:54:54.930Z,101798.00
2019-03-18T09:56:30.303Z,101782.00
2019-03-18T09:58:05.747Z,101789.00
2019-03-18T09:59:41.138Z,101796.00
2019-03-18T10:01:16.518Z,101786.00
2019-03-18T10:02:51.890Z,101795.00
2019-03-18T10:04:27.280Z,101801.00
2019-03-18T10:06:02.656Z,101804.00
2019-03-18T10:07:38.105Z,101795.00
2019-03-18T10:09:13.863Z,101794.00
2019-03-18T10:10:49.511Z,101805.00
2019-03-18T10:12:24.891Z,101806.00
2019-03-18T10:14:00.263Z,101809.00
2019-03-18T10:15:35.651Z,101815.00
2019-03-18T10:17:11.031Z,101821.00
2019-03-18T10:18:46.413Z,101818.00
2019-03-18T10:20:21.800Z,101820.00
2019-03-18T10:21:57.180Z,101830.00
2019-03-18T10:23:32.565Z,101818.00
2019-03-18T10:25:09.091Z,101826.00
2019-03-18T10:26:44.472Z,101823.00
2019-03-18T10:28:19.846Z,101823.00
2019-03-18T10:29:55.237Z,101841.00
2019-03-18T10:31:30.614Z,101831.00
2019-03-18T10:33:05.997Z,101828.00
2019-03-18T10:34:41.383Z,101837.00
2019-03-18T10:36:16.763Z,101827.00
2019-03-18T10:37:52.145Z,101834.00
2019-03-18T10:39:27.533Z,101822.00
2019-03-18T10:41:02.910Z,101833.00
2019-03-18T10:42:38.295Z,101828.00
2019-03-18T10:44:13.669Z,101824.00
2019-03-18T10:45:49.056Z,101837.00
2019-03-18T10:47:24.731Z,101826.00
2019-03-18T10:49:00.108Z,101831.00
2019-03-18T10:50:35.843Z,101825.00
2019-03-18T10:52:11.212Z,101827.00
2019-03-18T10:53:46.591Z,101843.00
2019-03-18T10:55:21.969Z,101848.00
2019-03-18T10:56:57.429Z,101838.00
2019-03-18T10:58:32.818Z,101847.00
2019-03-18T11:00:15.003Z,101842.00
2019-03-18T11:01:50.374Z,101854.00
2019-03-18T11:03:25.752Z,101858.00
2019-03-18T11:05:01.140Z,101857.00
2019-03-18T11:06:36.518Z,101854.00
2019-03-18T11:08:12.203Z,101862.00
2019-03-18T11:09:47.599Z,101862.00
2019-03-18T11:11:22.970Z,101855.00
2019-03-18T11:12:58.351Z,101860.00
2019-03-18T11:14:33.740Z,101871.00
2019-03-18T11:16:09.129Z,101870.00
2019-03-18T11:17:44.825Z,101871.00
2019-03-18T11:19:20.203Z,101869.00
2019-03-18T11:20:55.920Z,101858.00
2019-03-18T11:22:31.301Z,101871.00
2019-03-18T11:24:06.668Z,101871.00
2019-03-18T11:25:42.050Z,101872.00
2019-03-18T11:27:17.431Z,101862.00
2019-03-18T11:28:52.808Z,101865.00
2019-03-18T11:30:28.193Z,101870.00
2019-03-18T11:32:03.571Z,101858.00
2019-03-18T11:33:39.114Z,101854.00
2019-03-18T11:35:14.508Z,101861.00
2019-03-18T11:36:49.893Z,101853.00
2019-03-18T11:38:25.270Z,101851.00
2019-03-18T11:40:00.660Z,101859.00
2019-03-18T11:41:38.313Z,101863.00
2019-03-18T11:43:13.115Z,101857.00
2019-03-18T11:44:49.677Z,101855.00
2019-03-18T11:46:25.235Z,101858.00
2019-03-18T11:48:00.665Z,101849.00
2019-03-18T11:49:39.822Z,101859.00
2019-03-18T11:51:14.205Z,101862.00
2019-03-18T11:52:49.583Z,101853.00
2019-03-18T11:54:25.014Z,101855.00
2019-03-18T11:56:00.499Z,101853.00
2019-03-18T11:57:36.178Z,101865.00
2019-03-18T11:59:11.560Z,101862.00
2019-03-18T12:00:46.942Z,101865.00
2019-03-18T12:02:27.730Z,101870.00
2019-03-18T12:03:59.394Z,101864.00
2019-03-18T12:05:35.105Z,101862.00
2019-03-18T12:07:10.742Z,101857.00
2019-03-18T12:08:46.120Z,101853.00
2019-03-18T12:10:25.359Z,101860.00
2019-03-18T12:11:59.206Z,101862.00
2019-03-18T12:13:34.583Z,101854.00
2019-03-18T12:15:13.983Z,101849.00
2019-03-18T12:16:49.374Z,101848.00
2019-03-18T12:18:25.044Z,101842.00
2019-03-18T12:20:00.500Z,101865.00
2019-03-18T12:21:35.883Z,101855.00
2019-03-18T12:23:11.259Z,101857.00
2019-03-18T12:24:46.635Z,101859.00
2019-03-18T12:26:22.025Z,101847.00
2019-03-18T12:27:58.140Z,101851.00
2019-03-18T12:29:33.519Z,101857.00
2019-03-18T12:31:08.909Z,101856.00
2019-03-18T12:32:44.346Z,101874.00
2019-03-18T12:34:19.817Z,101847.00
2019-03-18T12:35:55.201Z,101854.00
2019-03-18T12:37:30.580Z,101858.00
2019-03-18T12:39:07.702Z,101864.00
2019-03-18T12:40:43.091Z,101852.00
2019-03-18T12:42:18.467Z,101857.00
2019-03-18T12:43:53.842Z,101857.00
2019-03-18T12:45:29.589Z,101859.00
2019-03-18T12:47:05.380Z,101865.00
2019-03-18T12:48:40.750Z,101859.00
2019-03-18T12:50:42.923Z,101854.00
2019-03-18T12:52:03.088Z,101855.00
2019-03-18T12:53:38.462Z,101851.00
2019-03-18T12:55:14.440Z,101848.00
2019-03-18T12:56:49.821Z,101849.00
2019-03-18T12:58:25.197Z,101844.00
2019-03-18T13:00:00.581Z,101847.00
2019-03-18T13:01:35.958Z,101861.00
2019-03-18T13:03:11.722Z,101854.00
2019-03-18T13:04:47.104Z,101851.00
2019-03-18T13:06:22.499Z,101854.00
2019-03-18T13:07:57.967Z,101854.00
2019-03-18T13:09:33.333Z,101870.00
2019-03-18T13:11:08.720Z,101895.00
2019-03-18T13:12:44.089Z,101895.00
2019-03-18T13:14:19.540Z,101924.00
2019-03-18T13:15:55.224Z,101922.00
2019-03-18T13:17:30.602Z,101918.00
2019-03-18T13:19:06.027Z,101928.00
2019-03-18T13:20:41.376Z,101913.00
2019-03-18T13:22:16.753Z,101915.00
2019-03-18T13:23:52.124Z,101879.00
2019-03-18T13:25:27.504Z,101904.00
2019-03-18T13:27:02.891Z,101901.00
2019-03-18T13:28:38.264Z,101912.00
2019-03-18T13:30:21.516Z,101870.00
2019-03-18T13:31:56.905Z,101872.00
2019-03-18T13:33:32.286Z,101893.00
2019-03-18T13:35:08.073Z,101891.00
2019-03-18T13:36:43.460Z,101873.00
2019-03-18T13:38:18.839Z,101881.00
2019-03-18T13:39:54.217Z,101872.00
2019-03-18T13:41:29.667Z,101879.00
2019-03-18T13:43:05.042Z,101859.00
2019-03-18T13:44:40.418Z,101855.00
2019-03-18T13:46:18.406Z,101854.00
2019-03-18T13:47:53.010Z,101857.00
2019-03-18T13:49:28.468Z,101874.00
2019-03-18T13:51:03.852Z,101874.00
2019-03-18T13:52:39.596Z,101873.00
2019-03-18T13:54:14.983Z,101873.00
2019-03-18T13:55:50.363Z,101877.00
2019-03-18T13:57:25.735Z,101879.00
2019-03-18T13:59:01.111Z,101878.00
2019-03-18T14:00:36.774Z,101871.00
2019-03-18T14:02:12.176Z,101880.00
2019-03-18T14:03:47.551Z,101887.00
2019-03-18T14:05:22.929Z,101881.00
2019-03-18T14:06:58.325Z,101876.00
2019-03-18T14:08:33.711Z,101874.00
2019-03-18T14:10:20.662Z,101875.00
2019-03-18T14:11:56.123Z,101877.00
2019-03-18T14:13:31.487Z,101885.00
2019-03-18T14:15:13.737Z,101879.00
2019-03-18T14:16:49.375Z,101877.00
2019-03-18T14:18:24.755Z,101884.00
2019-03-18T14:20:00.808Z,101884.00
2019-03-18T14:21:36.707Z,101885.00
2019-03-18T14:23:12.348Z,101882.00
2019-03-18T14:24:47.995Z,101887.00
2019-03-18T14:26:23.390Z,101887.00
2019-03-18T14:27:58.758Z,101895.00
2019-03-18T14:29:34.133Z,101895.00
2019-03-18T14:31:09.843Z,101901.00
2019-03-18T14:32:45.286Z,101889.00
2019-03-18T14:34:20.709Z,101894.00
2019-03-18T14:35:56.047Z,101890.00
2019-03-18T14:37:31.434Z,101890.00
2019-03-18T14:39:07.549Z,101898.00
2019-03-18T14:40:42.929Z,101897.00
2019-03-18T14:42:18.322Z,101887.00
2019-03-18T14:43:53.704Z,101896.00
2019-03-18T14:45:30.206Z,101908.00
2019-03-18T14:47:05.664Z,101894.00
2019-03-18T14:48:41.038Z,101908.00
2019-03-18T14:50:17.728Z,101912.00
2019-03-18T14:51:53.113Z,101895.00
2019-03-18T14:53:28.483Z,101902.00
2019-03-18T14:55:05.293Z,101906.00
2019-03-18T14:56:40.676Z,101886.00
2019-03-18T14:58:16.062Z,101909.00
2019-03-18T14:59:51.704Z,101899.00
2019-03-18T15:01:27.450Z,101906.00
2019-03-18T15:03:02.820Z,101908.00
2019-03-18T15:04:38.191Z,101913.00
2019-03-18T15:06:13.591Z,101914.00
2019-03-18T15:07:48.983Z,101919.00
2019-03-18T15:09:24.629Z,101918.00
2019-03-18T15:11:00.760Z,101929.00
2019-03-18T15:12:36.144Z,101937.00
2019-03-18T15:14:11.581Z,101921.00
2019-03-18T15:15:46.955Z,101937.00
2019-03-18T15:17:22.595Z,101959.00
2019-03-18T15:18:58.278Z,101958.00
2019-03-18T15:20:33.678Z,101967.00
2019-03-18T15:22:09.067Z,101973.00
2019-03-18T15:23:44.442Z,101953.00
2019-03-18T15:25:25.572Z,101938.00
2019-03-18T15:27:00.978Z,101947.00
2019-03-18T15:28:37.766Z,101952.00
2019-03-18T15:30:18.879Z,101952.00
2019-03-18T15:31:55.739Z,101947.00
2019-03-18T15:33:31.026Z,101930.00
2019-03-18T15:35:08.811Z,101920.00
2019-03-18T15:36:44.197Z,101923.00
2019-03-18T15:38:19.573Z,101933.00
2019-03-18T15:39:54.951Z,101935.00
2019-03-18T15:41:31.465Z,101932.00
2019-03-18T15:43:06.846Z,101935.00
2019-03-18T15:44:43.245Z,101937.00
2019-03-18T15:46:18.619Z,101929.00
2019-03-18T15:47:54.004Z,101942.00
2019-03-18T15:49:29.378Z,101950.00
2019-03-18T15:51:04.757Z,101949.00
2019-03-18T15:52:40.482Z,101944.00
2019-03-18T15:54:15.862Z,101943.00
2019-03-18T15:55:51.236Z,101934.00
2019-03-18T15:57:29.902Z,101940.00
2019-03-18T15:59:03.699Z,101934.00
2019-03-18T16:00:39.073Z,101938.00
2019-03-18T16:02:14.740Z,101942.00
2019-03-18T16:03:50.115Z,101947.00
2019-03-18T16:05:25.486Z,101947.00
2019-03-18T16:07:00.882Z,101957.00
2019-03-18T16:08:36.246Z,101961.00
2019-03-18T16:10:19.071Z,101958.00
2019-03-18T16:11:54.461Z,101962.00
2019-03-18T16:13:29.859Z,101969.00
2019-03-18T16:15:08.908Z,101957.00
2019-03-18T16:16:44.286Z,101968.00
2019-03-18T16:18:19.966Z,101961.00
2019-03-18T16:19:55.348Z,101965.00
2019-03-18T16:21:34.463Z,101966.00
2019-03-18T16:23:10.297Z,101963.00
2019-03-18T16:24:45.674Z,101964.00
2019-03-18T16:26:21.052Z,101970.00
2019-03-18T16:27:56.447Z,101975.00
2019-03-18T16:29:32.156Z,101971.00
2019-03-18T16:31:07.553Z,101982.00
2019-03-18T16:32:43.010Z,101970.00
2019-03-18T16:34:18.367Z,101981.00
2019-03-18T16:35:53.751Z,101975.00
2019-03-18T16:37:29.136Z,101970.00
2019-03-18T16:39:06.126Z,101978.00
2019-03-18T16:40:41.501Z,101980.00
2019-03-18T16:42:16.892Z,101983.00
2019-03-18T16:43:52.274Z,101994.00
2019-03-18T16:45:27.944Z,101996.00
2019-03-18T16:47:03.376Z,102000.00
2019-03-18T16:48:38.704Z,102002.00
2019-03-18T16:50:20.406Z,102003.00
2019-03-18T16:51:55.776Z,102011.00
2019-03-18T16:53:31.171Z,102011.00
2019-03-18T16:55:07.586Z,102020.00
2019-03-18T16:56:42.967Z,102019.00
2019-03-18T16:58:18.351Z,102018.00
2019-03-18T16:59:53.814Z,102022.00
2019-03-18T17:01:29.181Z,102025.00
2019-03-18T17:03:04.571Z,102025.00
2019-03-18T17:04:39.946Z,102033.00
2019-03-18T17:06:15.321Z,102026.00
2019-03-18T17:07:50.724Z,102032.00
2019-03-18T17:09:26.098Z,102029.00
2019-03-18T17:11:01.473Z,102045.00
2019-03-18T17:12:36.864Z,102050.00
2019-03-18T17:14:12.507Z,102048.00
2019-03-18T17:15:48.188Z,102040.00
2019-03-18T17:17:23.583Z,102053.00
2019-03-18T17:18:58.967Z,102043.00
2019-03-18T17:20:34.621Z,102048.00
2019-03-18T17:22:09.996Z,102056.00
2019-03-18T17:23:45.376Z,102065.00
2019-03-18T17:25:23.561Z,102056.00
2019-03-18T17:26:58.951Z,102055.00
2019-03-18T17:28:34.343Z,102060.00
2019-03-18T17:30:16.874Z,102064.00
2019-03-18T17:31:52.213Z,102062.00
2019-03-18T17:33:27.594Z,102062.00
2019-03-18T17:35:03.039Z,102071.00
2019-03-18T17:36:38.423Z,102079.00
2019-03-18T17:38:13.815Z,102078.00
2019-03-18T17:39:49.192Z,102067.00
2019-03-18T17:41:24.941Z,102082.00
2019-03-18T17:43:00.325Z,102087.00
2019-03-18T17:44:36.440Z,102095.00
2019-03-18T17:46:11.959Z,102080.00
2019-03-18T17:47:47.712Z,102076.00
2019-03-18T17:49:24.050Z,102088.00
2019-03-18T17:50:59.425Z,102092.00
2019-03-18T17:52:34.830Z,102102.00
2019-03-18T17:54:10.206Z,102107.00
2019-03-18T17:55:45.592Z,102116.00
2019-03-18T17:57:20.982Z,102117.00
2019-03-18T17:58:56.666Z,102114.00
2019-03-18T18:00:42.423Z,102126.00
2019-03-18T18:02:17.801Z,102096.00
2019-03-18T18:03:53.186Z,102110.00
2019-03-18T18:05:28.563Z,102113.00
2019-03-18T18:07:04.316Z,102118.00
2019-03-18T18:08:39.710Z,102112.00
2019-03-18T18:10:15.083Z,102125.00
2019-03-18T18:11:50.466Z,102128.00